createdAt,value
2022-09-09T00:01:46.294Z,36.22
2022-09-09T00:04:40.332Z,36.40
2022-09-09T00:07:42.955Z,36.45
2022-09-09T00:10:25.533Z,36.44
2022-09-09T00:13:30.629Z,36.54
2022-09-09T00:16:23.804Z,36.55
2022-09-09T00:19:27.588Z,36.63
2022-09-09T00:22:20.502Z,36.79
2022-09-09T00:25:00.846Z,36.77
2022-09-09T00:27:41.590Z,36.80
2022-09-09T00:30:24.228Z,36.82
2022-09-09T00:33:04.265Z,36.96
2022-09-09T00:35:44.160Z,36.99
2022-09-09T00:38:19.685Z,37.12
2022-09-09T00:40:55.325Z,37.30
2022-09-09T00:43:33.201Z,37.79
2022-09-09T00:46:37.776Z,38.17
2022-09-09T00:49:26.980Z,38.69
2022-09-09T00:52:15.655Z,39.05
2022-09-09T00:55:16.754Z,39.36
2022-09-09T00:57:49.210Z,39.81
2022-09-09T01:00:33.927Z,40.03
2022-09-09T01:03:22.205Z,40.20
2022-09-09T01:06:04.290Z,40.55
2022-09-09T01:09:00.135Z,40.63
2022-09-09T01:11:43.928Z,41.08
2022-09-09T01:14:22.053Z,41.35
2022-09-09T01:16:55.760Z,41.55
2022-09-09T01:19:48.800Z,41.69
2022-09-09T01:22:46.652Z,41.89
2022-09-09T01:25:22.710Z,42.16
2022-09-09T01:28:15.899Z,42.36
2022-09-09T01:30:46.406Z,42.36
2022-09-09T01:33:21.062Z,42.57
2022-09-09T01:36:01.997Z,42.86
2022-09-09T01:38:39.004Z,43.04
2022-09-09T01:41:09.703Z,43.12
2022-09-09T01:43:53.275Z,43.44
2022-09-09T01:46:25.735Z,43.38
2022-09-09T01:48:59.886Z,43.53
2022-09-09T01:51:31.658Z,43.92
2022-09-09T01:54:06.213Z,44.03
2022-09-09T01:57:18.131Z,44.17
2022-09-09T02:00:05.015Z,44.47
2022-09-09T02:03:11.697Z,44.39
2022-09-09T02:06:19.036Z,44.61
2022-09-09T02:08:54.260Z,44.92
2022-09-09T02:11:28.080Z,44.96
2022-09-09T02:14:15.000Z,45.13
2022-09-09T02:17:02.255Z,45.22
2022-09-09T02:19:50.238Z,45.45
2022-09-09T02:22:30.544Z,45.67
2022-09-09T02:25:03.048Z,45.74
2022-09-09T02:27:33.822Z,45.83
2022-09-09T02:30:06.506Z,45.86
2022-09-09T02:32:45.132Z,46.21
2022-09-09T02:35:20.366Z,46.09
2022-09-09T02:37:53.252Z,46.22
2022-09-09T02:40:25.064Z,46.45
2022-09-09T02:43:04.038Z,46.61
2022-09-09T02:45:45.178Z,46.64
2022-09-09T02:48:24.490Z,46.83
2022-09-09T02:51:25.410Z,47.06
2022-09-09T02:54:14.936Z,47.16
2022-09-09T02:56:52.816Z,47.33
2022-09-09T02:59:25.759Z,47.53
2022-09-09T03:01:56.919Z,47.50
2022-09-09T03:04:28.304Z,47.65
2022-09-09T03:07:01.745Z,47.71
2022-09-09T03:09:33.999Z,47.83
2022-09-09T03:12:05.716Z,48.05
2022-09-09T03:14:39.497Z,48.15
2022-09-09T03:17:10.726Z,48.36
2022-09-09T03:19:45.524Z,48.22
2022-09-09T03:22:16.677Z,48.55
2022-09-09T03:24:48.129Z,48.42
2022-09-09T03:27:20.889Z,48.70
2022-09-09T03:29:52.806Z,48.74
2022-09-09T03:32:27.130Z,48.82
2022-09-09T03:34:58.547Z,48.96
2022-09-09T03:37:29.297Z,49.12
2022-09-09T03:40:01.307Z,49.26
2022-09-09T03:42:33.352Z,49.15
2022-09-09T03:45:04.045Z,49.36
2022-09-09T03:47:34.964Z,49.52
2022-09-09T03:50:11.821Z,49.58
2022-09-09T03:52:45.257Z,49.70
2022-09-09T03:55:20.320Z,49.64
2022-09-09T03:57:51.113Z,49.77
2022-09-09T04:00:22.749Z,49.97
2022-09-09T04:02:55.981Z,50.01
2022-09-09T04:05:26.390Z,49.95
2022-09-09T04:07:57.061Z,50.13
2022-09-09T04:10:28.267Z,50.34
2022-09-09T04:12:59.165Z,50.46
2022-09-09T04:15:30.343Z,50.56
2022-09-09T04:18:00.791Z,50.63
2022-09-09T04:20:31.629Z,50.66
2022-09-09T04:23:02.258Z,50.69
2022-09-09T04:25:32.694Z,50.91
2022-09-09T04:28:04.083Z,50.95
2022-09-09T04:30:36.217Z,51.10
2022-09-09T04:33:07.009Z,50.98
2022-09-09T04:35:37.677Z,51.36
2022-09-09T04:38:10.795Z,51.30
2022-09-09T04:40:44.275Z,51.59
2022-09-09T04:43:15.813Z,51.55
2022-09-09T04:45:49.709Z,51.78
2022-09-09T04:48:21.052Z,51.80
2022-09-09T04:51:05.325Z,51.69
2022-09-09T04:53:37.204Z,51.93
2022-09-09T04:56:11.417Z,51.82
2022-09-09T04:58:47.004Z,52.12
2022-09-09T05:01:21.015Z,52.38
2022-09-09T05:03:53.417Z,52.18
2022-09-09T05:06:26.282Z,52.44
2022-09-09T05:08:59.411Z,52.50
2022-09-09T05:11:38.010Z,52.65
2022-09-09T05:14:32.123Z,52.64
2022-09-09T05:17:03.684Z,52.78
2022-09-09T05:19:34.172Z,52.93
2022-09-09T05:22:06.364Z,52.84
2022-09-09T05:24:43.934Z,53.03
2022-09-09T05:27:14.367Z,53.02
2022-09-09T05:29:46.074Z,53.15
2022-09-09T05:32:17.622Z,53.19
2022-09-09T05:34:50.101Z,53.26
2022-09-09T05:37:21.481Z,53.32
2022-09-09T05:39:52.605Z,53.38
2022-09-09T05:42:25.903Z,53.47
2022-09-09T05:44:56.198Z,53.66
2022-09-09T05:47:29.025Z,53.85
2022-09-09T05:49:59.880Z,53.94
2022-09-09T05:52:30.186Z,53.98
2022-09-09T05:55:01.451Z,54.11
2022-09-09T05:57:33.096Z,54.13
2022-09-09T06:00:04.097Z,54.26
2022-09-09T06:02:44.029Z,54.20
2022-09-09T06:05:17.706Z,54.27
2022-09-09T06:07:48.517Z,54.37
2022-09-09T06:10:19.099Z,54.48
2022-09-09T06:12:50.019Z,54.47
2022-09-09T06:15:24.886Z,54.59
2022-09-09T06:17:58.936Z,54.65
2022-09-09T06:20:32.132Z,54.53
2022-09-09T06:23:05.667Z,54.74
2022-09-09T06:25:36.286Z,55.01
2022-09-09T06:28:07.556Z,55.08
2022-09-09T06:30:38.306Z,55.06
2022-09-09T06:33:10.674Z,55.10
2022-09-09T06:35:41.106Z,55.22
2022-09-09T06:38:12.436Z,55.09
2022-09-09T06:40:42.771Z,55.27
2022-09-09T06:43:16.456Z,55.25
2022-09-09T06:46:12.433Z,55.45
2022-09-09T06:48:48.856Z,55.53
2022-09-09T06:51:22.517Z,55.52
2022-09-09T06:53:56.078Z,55.61
2022-09-09T06:56:34.258Z,55.72
2022-09-09T06:59:10.642Z,55.84
2022-09-09T07:01:45.239Z,55.92
2022-09-09T07:04:17.114Z,55.73
2022-09-09T07:06:51.159Z,56.03
2022-09-09T07:09:26.917Z,55.92
2022-09-09T07:12:00.949Z,56.08
2022-09-09T07:14:34.047Z,56.03
2022-09-09T07:17:05.248Z,56.33
2022-09-09T07:19:38.931Z,56.18
2022-09-09T07:22:09.276Z,56.34
2022-09-09T07:24:40.792Z,56.36
2022-09-09T07:27:13.509Z,56.39
2022-09-09T07:29:44.866Z,56.42
2022-09-09T07:32:16.805Z,56.43
2022-09-09T07:34:51.715Z,56.71
2022-09-09T07:37:25.696Z,56.63
2022-09-09T07:39:56.319Z,56.78
2022-09-09T07:42:26.756Z,56.88
2022-09-09T07:44:59.791Z,56.97
2022-09-09T07:47:31.558Z,56.90
2022-09-09T07:50:03.261Z,57.01
2022-09-09T07:52:36.717Z,57.09
2022-09-09T07:55:10.709Z,57.08
2022-09-09T07:57:41.810Z,57.22
2022-09-09T08:00:13.850Z,57.17
2022-09-09T08:02:45.879Z,57.45
2022-09-09T08:05:18.169Z,57.34
2022-09-09T08:07:49.955Z,57.39
2022-09-09T08:10:20.865Z,57.38
2022-09-09T08:13:14.751Z,57.38
2022-09-09T08:15:45.790Z,57.53
2022-09-09T08:18:17.152Z,57.57
2022-09-09T08:20:49.061Z,57.67
2022-09-09T08:23:20.288Z,57.75
2022-09-09T08:25:51.502Z,57.78
2022-09-09T08:28:22.994Z,57.66
2022-09-09T08:30:55.720Z,57.63
2022-09-09T08:33:30.534Z,57.78
2022-09-09T08:36:04.430Z,57.81
2022-09-09T08:38:36.568Z,57.94
2022-09-09T08:41:46.779Z,57.90
2022-09-09T08:44:38.138Z,58.10
2022-09-09T08:47:36.086Z,58.09
2022-09-09T08:50:29.665Z,57.96
2022-09-09T08:53:15.624Z,58.13
2022-09-09T08:55:54.416Z,58.21
2022-09-09T08:58:38.229Z,58.27
2022-09-09T09:01:29.228Z,58.17
2022-09-09T09:04:17.407Z,58.44
2022-09-09T09:07:06.203Z,58.44
2022-09-09T09:09:50.424Z,58.53
2022-09-09T09:12:33.116Z,58.65
2022-09-09T09:15:14.444Z,58.59
2022-09-09T09:17:45.576Z,58.52
2022-09-09T09:20:19.031Z,58.67
2022-09-09T09:22:54.233Z,58.79
2022-09-09T09:25:34.411Z,58.64
2022-09-09T09:28:18.732Z,58.83
2022-09-09T09:31:00.397Z,58.74
2022-09-09T09:33:54.270Z,58.64
2022-09-09T09:36:45.969Z,58.75
2022-09-09T09:42:28.204Z,58.91
2022-09-09T09:45:11.616Z,58.85
2022-09-09T09:47:49.480Z,59.28
2022-09-09T09:50:22.969Z,59.22
2022-09-09T09:53:07.646Z,59.15
2022-09-09T09:55:57.989Z,59.14
2022-09-09T09:58:33.843Z,59.33
2022-09-09T10:01:31.017Z,59.25
2022-09-09T10:04:20.041Z,59.31
2022-09-09T10:06:51.856Z,59.30
2022-09-09T10:09:28.956Z,59.47
2022-09-09T10:12:27.692Z,59.53
2022-09-09T10:15:20.231Z,59.47
2022-09-09T10:17:55.736Z,59.26
2022-09-09T10:20:45.868Z,59.34
2022-09-09T10:23:42.543Z,59.38
2022-09-09T10:26:21.000Z,59.45
2022-09-09T10:29:26.597Z,59.61
2022-09-09T10:32:19.399Z,59.63
2022-09-09T10:34:53.869Z,59.65
2022-09-09T10:37:32.404Z,59.73
2022-09-09T10:40:45.900Z,59.92
2022-09-09T10:43:38.437Z,59.73
2022-09-09T10:46:24.172Z,59.94
2022-09-09T10:49:08.554Z,60.06
2022-09-09T10:51:57.994Z,60.12
2022-09-09T10:54:31.637Z,60.08
2022-09-09T11:08:13.539Z,59.58
2022-09-09T11:11:08.709Z,59.64
2022-09-09T11:13:52.813Z,59.73
2022-09-09T11:16:43.235Z,59.84
2022-09-09T11:19:37.848Z,59.96
2022-09-09T11:22:50.788Z,60.17
2022-09-09T11:25:52.192Z,60.29
2022-09-09T11:28:54.414Z,60.27
2022-09-09T11:31:43.356Z,60.47
2022-09-09T11:34:57.974Z,60.44
2022-09-09T11:37:53.156Z,60.51
2022-09-09T11:40:27.841Z,60.59
2022-09-09T11:43:28.400Z,60.73
2022-09-09T11:46:15.501Z,60.75
2022-09-09T11:49:06.820Z,60.76
2022-09-09T11:51:40.036Z,60.66
2022-09-09T11:54:30.745Z,60.85
2022-09-09T11:57:06.212Z,60.67
2022-09-09T11:59:54.791Z,60.70
2022-09-09T12:02:32.564Z,60.80
2022-09-09T12:05:21.202Z,60.91
2022-09-09T12:08:13.686Z,61.19
2022-09-09T12:10:55.452Z,61.09
2022-09-09T12:13:29.889Z,61.27
2022-09-09T12:16:07.084Z,61.11
2022-09-09T12:18:40.921Z,61.20
2022-09-09T12:21:37.234Z,61.21
2022-09-09T12:24:17.866Z,61.23
2022-09-09T12:26:58.637Z,61.23
2022-09-09T12:29:38.296Z,61.17
2022-09-09T12:32:25.956Z,61.27
2022-09-09T12:35:47.558Z,61.28
2022-09-09T12:38:33.234Z,61.43
2022-09-09T12:41:23.133Z,61.45
2022-09-09T12:43:55.846Z,61.36
2022-09-09T12:47:05.604Z,61.36
2022-09-09T12:49:43.256Z,61.47
2022-09-09T12:56:06.287Z,61.71
2022-09-09T12:58:41.812Z,61.65
2022-09-09T13:01:57.890Z,62.01
2022-09-09T13:04:28.946Z,61.88
2022-09-09T13:07:12.909Z,61.89
2022-09-09T13:09:47.353Z,62.01
2022-09-09T13:12:40.126Z,62.08
2022-09-09T13:15:28.623Z,62.02
2022-09-09T13:18:02.461Z,62.10
2022-09-09T13:20:35.646Z,62.09
2022-09-09T13:23:07.297Z,61.87
2022-09-09T13:25:43.712Z,62.06
2022-09-09T13:28:24.641Z,62.01
2022-09-09T13:31:22.089Z,62.05
2022-09-09T13:33:55.536Z,62.12
2022-09-09T13:36:38.048Z,62.15
2022-09-09T13:39:23.089Z,62.27
2022-09-09T13:41:56.281Z,62.21
2022-09-09T13:44:37.347Z,62.33
2022-09-09T13:47:12.196Z,62.42
2022-09-09T13:49:47.124Z,62.49
2022-09-09T13:52:23.699Z,62.52
2022-09-09T13:54:57.121Z,62.58
2022-09-09T13:57:32.823Z,62.49
2022-09-09T14:00:08.010Z,62.45
2022-09-09T14:02:48.530Z,62.45
2022-09-09T14:05:29.126Z,62.53
2022-09-09T14:08:01.978Z,62.81
2022-09-09T14:10:38.605Z,62.71
2022-09-09T14:13:15.086Z,62.72
2022-09-09T14:15:48.414Z,62.59
2022-09-09T14:18:33.347Z,62.68
2022-09-09T14:21:05.049Z,62.75
2022-09-09T14:23:35.981Z,62.61
2022-09-09T14:26:08.675Z,62.72
2022-09-09T14:29:11.563Z,62.75
2022-09-09T14:31:42.060Z,63.07
2022-09-09T14:34:20.033Z,62.99
2022-09-09T14:36:51.877Z,62.88
2022-09-09T14:39:22.958Z,63.02
2022-09-09T14:41:54.637Z,63.00
2022-09-09T14:44:27.266Z,63.06
2022-09-09T14:46:57.644Z,63.05
2022-09-09T14:49:27.931Z,63.03
2022-09-09T14:51:58.251Z,63.15
2022-09-09T14:54:29.929Z,63.23
2022-09-09T14:57:33.199Z,63.25
2022-09-09T15:00:07.276Z,63.26
2022-09-09T15:02:37.745Z,63.28
2022-09-09T15:05:20.246Z,63.35
2022-09-09T15:07:57.921Z,63.34
2022-09-09T15:10:46.513Z,63.40
2022-09-09T15:13:35.478Z,63.57
2022-09-09T15:16:31.529Z,63.48
2022-09-09T15:19:18.385Z,63.49
2022-09-09T15:22:07.012Z,63.40
2022-09-09T15:25:03.427Z,63.42
2022-09-09T15:27:58.482Z,63.51
2022-09-09T15:30:38.562Z,63.54
2022-09-09T15:33:24.575Z,63.64
2022-09-09T15:36:02.865Z,63.68
2022-09-09T15:38:49.611Z,63.49
2022-09-09T15:41:26.644Z,63.61
2022-09-09T15:44:14.880Z,63.53
2022-09-09T15:46:51.627Z,63.57
2022-09-09T15:49:27.331Z,63.68
2022-09-09T15:52:04.824Z,63.72
2022-09-09T15:54:41.048Z,63.72
2022-09-09T15:57:17.578Z,63.93
2022-09-09T15:59:47.707Z,63.90
2022-09-09T16:02:18.261Z,63.66
2022-09-09T16:04:48.602Z,63.69
2022-09-09T16:07:18.960Z,63.76
2022-09-09T16:09:49.206Z,63.99
2022-09-09T16:12:19.655Z,63.82
2022-09-09T16:14:50.142Z,63.94
2022-09-09T16:17:21.833Z,63.86
2022-09-09T16:19:52.173Z,63.90
2022-09-09T16:22:22.955Z,63.98
2022-09-09T16:24:53.387Z,63.84
2022-09-09T16:27:24.638Z,63.87
2022-09-09T16:29:56.894Z,64.08
2022-09-09T16:32:27.687Z,64.13
2022-09-09T16:34:59.168Z,64.10
2022-09-09T16:37:54.617Z,64.22
2022-09-09T16:40:52.211Z,64.06
2022-09-09T16:43:22.619Z,64.19
2022-09-09T16:45:53.175Z,64.09
2022-09-09T16:48:23.624Z,64.27
2022-09-09T16:50:54.149Z,64.28
2022-09-09T16:53:24.508Z,64.33
2022-09-09T16:55:54.839Z,64.45
2022-09-09T16:58:27.300Z,64.40
2022-09-09T17:01:01.639Z,64.26
2022-09-09T17:03:35.529Z,64.40
2022-09-09T17:06:06.568Z,64.21
2022-09-09T17:13:11.620Z,64.39
2022-09-09T17:15:45.313Z,64.39
2022-09-09T17:18:17.642Z,64.34
2022-09-09T17:21:10.194Z,64.44
2022-09-09T17:23:52.219Z,64.63
2022-09-09T17:26:24.625Z,64.56
2022-09-09T17:28:59.246Z,64.50
2022-09-09T17:31:34.010Z,64.72
2022-09-09T17:34:13.660Z,64.69
2022-09-09T17:36:46.647Z,64.59
2022-09-09T17:39:21.169Z,64.82
2022-09-09T17:42:02.315Z,64.65
2022-09-09T17:44:37.353Z,64.70
2022-09-09T17:47:08.076Z,64.84
2022-09-09T17:49:38.624Z,64.65
2022-09-09T17:52:09.233Z,64.88
2022-09-09T17:55:13.355Z,64.91
2022-09-09T17:58:03.367Z,64.88
2022-09-09T18:00:33.894Z,64.86
2022-09-09T18:03:04.475Z,64.91
2022-09-09T18:05:35.176Z,65.00
2022-09-09T18:08:12.151Z,65.13
2022-09-09T18:10:43.093Z,65.02
2022-09-09T18:13:13.737Z,65.18
2022-09-09T18:15:49.581Z,65.02
2022-09-09T18:18:40.455Z,64.94
2022-09-09T18:21:11.438Z,64.96
2022-09-09T18:23:45.136Z,64.98
2022-09-09T18:26:18.689Z,65.01
2022-09-09T18:29:13.366Z,65.17
2022-09-09T18:31:47.192Z,65.26
2022-09-09T18:34:31.748Z,65.20
2022-09-09T18:37:11.249Z,65.16
2022-09-09T18:39:41.821Z,65.26
2022-09-09T18:42:14.279Z,65.06
2022-09-09T18:44:45.065Z,65.25
2022-09-09T18:47:40.458Z,65.36
2022-09-09T18:50:12.182Z,65.32
2022-09-09T18:52:43.060Z,65.32
2022-09-09T18:55:13.456Z,65.34
2022-09-09T18:58:30.325Z,65.28
2022-09-09T19:01:02.115Z,65.32
2022-09-09T19:03:34.239Z,65.11
2022-09-09T19:06:14.267Z,65.23
2022-09-09T19:09:33.211Z,65.38
2022-09-09T19:12:05.011Z,65.38
2022-09-09T19:19:15.028Z,65.42
2022-09-09T19:21:48.036Z,65.43
2022-09-09T19:24:23.966Z,65.29
2022-09-09T19:27:11.625Z,65.42
2022-09-09T19:29:43.786Z,65.43
2022-09-09T19:32:52.308Z,65.66
2022-09-09T19:35:06.439Z,65.58
2022-09-09T19:37:36.856Z,65.52
2022-09-09T19:40:10.257Z,65.39
2022-09-09T19:42:41.772Z,65.51
2022-09-09T19:45:12.357Z,65.62
2022-09-09T19:47:43.143Z,65.59
2022-09-09T19:56:45.042Z,65.66
2022-09-09T20:03:45.924Z,65.64
2022-09-09T20:29:16.333Z,65.87
2022-09-09T20:32:00.833Z,66.09
2022-09-09T20:34:50.742Z,66.01
2022-09-09T20:37:45.233Z,66.09
2022-09-09T20:40:17.964Z,65.95
2022-09-09T20:42:49.102Z,66.03
2022-09-09T21:04:31.013Z,66.17
2022-09-09T21:07:01.293Z,66.23
2022-09-09T22:04:40.699Z,66.59
2022-09-09T22:07:11.423Z,66.60
2022-09-09T22:37:10.472Z,66.76
2022-09-09T22:39:41.050Z,66.64
2022-09-09T22:46:32.197Z,66.77
2022-09-09T22:53:34.199Z,66.79
2022-09-09T22:56:07.461Z,66.96
2022-09-09T22:58:38.669Z,66.76
2022-09-09T23:01:48.348Z,66.71
